createdAt,value
2018-08-12T00:00:17.698Z,4.77
2018-08-12T00:03:00.973Z,5.70
2018-08-12T00:05:43.423Z,5.20
2018-08-12T00:08:25.794Z,5.10
2018-08-12T00:11:08.526Z,5.10
2018-08-12T00:13:51.953Z,5.30
2018-08-12T00:16:34.237Z,5.07
2018-08-12T00:19:16.887Z,5.10
2018-08-12T00:21:59.679Z,5.70
2018-08-12T00:24:42.513Z,5.27
2018-08-12T00:27:25.190Z,5.93
2018-08-12T00:30:09.187Z,5.40
2018-08-12T00:32:51.538Z,5.30
2018-08-12T00:35:34.281Z,5.30
2018-08-12T00:38:17.789Z,4.93
2018-08-12T00:41:01.011Z,5.40
2018-08-12T00:43:43.628Z,4.93
2018-08-12T00:46:26.397Z,5.67
2018-08-12T00:49:09.182Z,5.67
2018-08-12T00:51:51.921Z,5.80
2018-08-12T00:54:35.259Z,5.50
2018-08-12T00:57:17.655Z,6.27
2018-08-12T01:00:00.218Z,5.37
2018-08-12T01:02:43.526Z,5.60
2018-08-12T01:05:26.489Z,5.60
2018-08-12T01:08:09.238Z,5.93
2018-08-12T01:10:52.356Z,5.97
2018-08-12T01:13:34.901Z,6.00
2018-08-12T01:16:17.715Z,5.50
2018-08-12T01:19:00.921Z,6.03
2018-08-12T01:21:44.201Z,5.60
2018-08-12T01:24:26.900Z,6.30
2018-08-12T01:27:09.724Z,5.97
2018-08-12T01:29:52.604Z,5.60
2018-08-12T01:32:35.375Z,7.10
2018-08-12T01:35:19.062Z,6.07
2018-08-12T01:38:01.627Z,5.60
2018-08-12T01:40:45.116Z,6.40
2018-08-12T01:43:28.767Z,6.40
2018-08-12T01:46:11.096Z,6.87
2018-08-12T01:48:54.126Z,6.17
2018-08-12T01:51:36.866Z,6.40
2018-08-12T01:54:19.786Z,6.43
2018-08-12T01:57:03.065Z,7.07
2018-08-12T01:59:45.961Z,6.83
2018-08-12T02:02:29.336Z,6.50
2018-08-12T02:05:12.397Z,6.47
2018-08-12T02:07:55.621Z,6.40
2018-08-12T02:10:38.687Z,6.23
2018-08-12T02:13:21.821Z,6.70
2018-08-12T02:16:04.322Z,6.30
2018-08-12T02:18:46.862Z,6.20
2018-08-12T02:21:29.601Z,7.27
2018-08-12T02:24:12.434Z,6.10
2018-08-12T02:26:55.554Z,6.47
2018-08-12T02:29:38.496Z,6.83
2018-08-12T02:32:21.645Z,6.90
2018-08-12T02:35:04.841Z,6.50
2018-08-12T02:37:47.172Z,7.30
2018-08-12T02:40:29.875Z,7.43
2018-08-12T02:43:12.858Z,7.30
2018-08-12T02:45:55.430Z,7.33
2018-08-12T02:48:38.126Z,7.80
2018-08-12T02:51:21.080Z,6.90
2018-08-12T02:54:03.488Z,7.40
2018-08-12T02:56:46.009Z,7.67
2018-08-12T02:59:28.775Z,7.57
2018-08-12T03:02:11.701Z,7.60
2018-08-12T03:04:54.512Z,7.80
2018-08-12T03:07:37.357Z,7.60
2018-08-12T03:10:20.472Z,7.93
2018-08-12T03:13:03.684Z,7.83
2018-08-12T03:15:46.121Z,8.37
2018-08-12T03:18:28.966Z,8.40
2018-08-12T03:21:11.828Z,8.10
2018-08-12T03:23:54.534Z,8.80
2018-08-12T03:26:37.430Z,9.70
2018-08-12T03:29:20.216Z,8.13
2018-08-12T03:32:02.968Z,7.90
2018-08-12T03:34:45.830Z,7.37
2018-08-12T03:37:28.297Z,7.80
2018-08-12T03:40:13.099Z,7.70
2018-08-12T03:42:56.233Z,7.80
2018-08-12T03:45:39.026Z,8.57
2018-08-12T03:48:21.490Z,7.73
2018-08-12T03:51:04.655Z,8.90
2018-08-12T03:53:47.048Z,8.20
2018-08-12T03:56:29.712Z,8.73
2018-08-12T03:59:13.198Z,8.43
2018-08-12T04:01:56.482Z,9.30
2018-08-12T04:04:39.279Z,8.73
2018-08-12T04:07:22.115Z,7.90
2018-08-12T04:10:05.373Z,7.60
2018-08-12T04:12:48.725Z,8.40
2018-08-12T04:15:33.209Z,8.37
2018-08-12T04:18:16.140Z,8.90
2018-08-12T04:20:58.631Z,8.47
2018-08-12T04:23:41.385Z,7.73
2018-08-12T04:26:24.083Z,8.03
2018-08-12T04:29:06.808Z,7.83
2018-08-12T04:31:49.623Z,8.70
2018-08-12T04:34:32.497Z,7.93
2018-08-12T04:37:21.420Z,8.90
2018-08-12T04:40:03.733Z,9.07
2018-08-12T04:42:47.048Z,7.97
2018-08-12T04:45:30.144Z,8.70
2018-08-12T04:48:13.460Z,9.27
2018-08-12T04:50:56.587Z,7.97
2018-08-12T04:53:39.346Z,8.60
2018-08-12T04:56:22.875Z,9.47
2018-08-12T04:59:05.944Z,8.60
2018-08-12T05:01:48.781Z,9.70
2018-08-12T05:04:31.325Z,8.60
2018-08-12T05:07:14.060Z,8.40
2018-08-12T05:09:56.977Z,9.13
2018-08-12T05:12:39.602Z,9.30
2018-08-12T05:15:22.827Z,9.17
2018-08-12T05:18:05.176Z,7.97
2018-08-12T05:20:47.932Z,9.13
2018-08-12T05:23:30.586Z,8.07
2018-08-12T05:26:14.066Z,7.70
2018-08-12T05:28:57.480Z,7.60
2018-08-12T05:31:39.816Z,7.30
2018-08-12T05:34:22.578Z,8.10
2018-08-12T05:37:05.283Z,9.43
2018-08-12T05:39:48.295Z,7.57
2018-08-12T05:42:30.975Z,8.40
2018-08-12T05:45:13.850Z,8.00
2018-08-12T05:47:56.399Z,7.60
2018-08-12T05:50:39.177Z,8.23
2018-08-12T05:53:21.916Z,8.70
2018-08-12T05:56:04.654Z,7.27
2018-08-12T05:58:47.339Z,7.47
2018-08-12T06:01:30.369Z,7.37
2018-08-12T06:04:13.256Z,6.67
2018-08-12T06:06:56.217Z,6.70
2018-08-12T06:09:39.374Z,8.13
2018-08-12T06:12:22.188Z,8.83
2018-08-12T06:15:06.076Z,8.18
2018-08-12T06:17:49.652Z,8.50
2018-08-12T06:20:32.762Z,7.17
2018-08-12T06:23:15.713Z,6.70
2018-08-12T06:25:58.665Z,6.87
2018-08-12T06:28:41.298Z,6.60
2018-08-12T06:31:24.441Z,5.93
2018-08-12T06:34:06.936Z,6.23
2018-08-12T06:36:49.816Z,6.57
2018-08-12T06:39:32.648Z,6.50
2018-08-12T06:42:15.337Z,7.80
2018-08-12T06:44:58.982Z,6.60
2018-08-12T06:47:42.727Z,7.17
2018-08-12T06:50:25.936Z,6.60
2018-08-12T06:53:08.737Z,6.80
2018-08-12T06:55:51.420Z,7.83
2018-08-12T06:58:34.428Z,7.00
2018-08-12T07:01:17.278Z,6.70
2018-08-12T07:04:00.024Z,7.00
2018-08-12T07:06:43.625Z,7.27
2018-08-12T07:09:26.286Z,7.20
2018-08-12T07:12:08.897Z,7.10
2018-08-12T07:14:52.135Z,7.40
2018-08-12T07:17:34.423Z,6.80
2018-08-12T07:20:17.246Z,7.80
2018-08-12T07:22:59.804Z,7.00
2018-08-12T07:25:42.718Z,7.50
2018-08-12T07:28:25.817Z,7.40
2018-08-12T07:31:09.190Z,7.90
2018-08-12T07:33:51.737Z,8.20
2018-08-12T07:36:34.430Z,7.40
2018-08-12T07:39:17.147Z,8.33
2018-08-12T07:41:59.897Z,7.27
2018-08-12T07:44:42.584Z,6.90
2018-08-12T07:47:25.728Z,6.60
2018-08-12T07:50:09.868Z,6.27
2018-08-12T07:52:52.288Z,5.92
2018-08-12T07:55:34.886Z,6.40
2018-08-12T07:58:17.825Z,6.23
2018-08-12T08:01:00.366Z,6.93
2018-08-12T08:03:43.335Z,6.73
2018-08-12T08:06:26.197Z,7.00
2018-08-12T08:09:10.921Z,7.47
2018-08-12T08:11:53.541Z,7.13
2018-08-12T08:14:36.476Z,7.77
2018-08-12T08:17:19.011Z,7.43
2018-08-12T08:20:01.812Z,8.23
2018-08-12T08:22:44.679Z,7.00
2018-08-12T08:25:27.027Z,7.20
2018-08-12T08:28:09.776Z,7.40
2018-08-12T08:30:53.032Z,7.43
2018-08-12T08:33:36.181Z,7.70
2018-08-12T08:36:18.909Z,7.03
2018-08-12T08:39:01.695Z,7.13
2018-08-12T08:41:44.424Z,8.20
2018-08-12T08:44:27.195Z,7.10
2018-08-12T08:47:10.068Z,8.47
2018-08-12T08:49:52.730Z,7.27
2018-08-12T08:52:35.445Z,8.17
2018-08-12T08:55:18.639Z,7.90
2018-08-12T08:58:00.974Z,7.90
2018-08-12T09:00:43.861Z,7.67
2018-08-12T09:03:26.695Z,7.90
2018-08-12T09:06:09.887Z,8.10
2018-08-12T09:08:52.391Z,8.60
2018-08-12T09:11:35.335Z,7.53
2018-08-12T09:14:17.991Z,6.70
2018-08-12T09:17:00.483Z,6.47
2018-08-12T09:19:43.053Z,6.17
2018-08-12T09:22:26.976Z,6.22
2018-08-12T09:25:11.084Z,6.30
2018-08-12T09:27:53.856Z,6.55
2018-08-12T09:30:36.502Z,6.50
2018-08-12T09:33:19.197Z,6.30
2018-08-12T09:36:03.638Z,6.78
2018-08-12T09:38:47.036Z,6.80
2018-08-12T09:41:29.748Z,6.50
2018-08-12T09:44:12.268Z,6.00
2018-08-12T09:46:55.231Z,6.42
2018-08-12T09:49:37.973Z,6.00
2018-08-12T09:52:21.719Z,7.25
2018-08-12T09:55:04.945Z,6.72
2018-08-12T09:57:48.080Z,6.90
2018-08-12T10:00:36.020Z,6.25
2018-08-12T10:03:19.136Z,6.20
2018-08-12T10:06:02.638Z,6.10
2018-08-12T10:08:45.190Z,6.62
2018-08-12T10:11:28.607Z,6.08
2018-08-12T10:14:11.521Z,5.92
2018-08-12T10:16:54.417Z,6.17
2018-08-12T10:19:37.551Z,5.50
2018-08-12T10:22:20.819Z,5.40
2018-08-12T10:25:03.431Z,5.37
2018-08-12T10:27:46.899Z,4.53
2018-08-12T10:30:29.938Z,4.90
2018-08-12T10:33:12.728Z,5.03
2018-08-12T10:35:55.593Z,5.33
2018-08-12T10:38:38.530Z,5.42
2018-08-12T10:41:21.125Z,5.45
2018-08-12T10:44:04.577Z,6.00
2018-08-12T10:46:46.977Z,5.15
2018-08-12T10:49:29.618Z,5.90
2018-08-12T10:52:12.829Z,5.03
2018-08-12T10:54:55.701Z,5.50
2018-08-12T10:57:38.648Z,5.47
2018-08-12T11:00:24.867Z,5.92
2018-08-12T11:03:08.113Z,5.60
2018-08-12T11:05:51.500Z,5.35
2018-08-12T11:08:34.923Z,5.53
2018-08-12T11:11:17.489Z,5.55
2018-08-12T11:14:00.020Z,5.92
2018-08-12T11:16:42.880Z,5.62
2018-08-12T11:19:25.648Z,5.20
2018-08-12T11:22:08.518Z,6.85
2018-08-12T11:24:51.188Z,5.28
2018-08-12T11:27:34.434Z,5.78
2018-08-12T11:30:19.029Z,5.85
2018-08-12T11:33:01.595Z,5.78
2018-08-12T11:35:47.936Z,6.08
2018-08-12T11:38:34.325Z,6.22
2018-08-12T11:41:17.148Z,5.65
2018-08-12T11:43:59.671Z,6.25
2018-08-12T11:46:42.600Z,5.42
2018-08-12T11:49:25.336Z,4.95
2018-08-12T11:52:08.130Z,6.45
2018-08-12T11:54:50.741Z,6.25
2018-08-12T11:57:33.483Z,6.05
2018-08-12T12:00:19.735Z,7.08
2018-08-12T12:03:02.193Z,6.20
2018-08-12T12:05:44.887Z,5.67
2018-08-12T12:08:27.667Z,7.72
2018-08-12T12:11:10.526Z,6.75
2018-08-12T12:13:54.337Z,6.22
2018-08-12T12:16:43.400Z,6.95
2018-08-12T12:19:25.894Z,5.87
2018-08-12T12:22:08.648Z,5.75
2018-08-12T12:24:51.390Z,6.35
2018-08-12T12:27:34.712Z,5.87
2018-08-12T12:30:19.372Z,5.90
2018-08-12T12:33:02.004Z,6.30
2018-08-12T12:35:44.562Z,5.97
2018-08-12T12:38:27.472Z,6.78
2018-08-12T12:41:10.177Z,6.60
2018-08-12T12:43:53.020Z,6.30
2018-08-12T12:46:35.781Z,6.22
2018-08-12T12:49:18.640Z,5.95
2018-08-12T12:52:01.101Z,6.15
2018-08-12T12:54:44.797Z,5.90
2018-08-12T12:57:32.673Z,6.08
2018-08-12T13:00:17.276Z,6.58
2018-08-12T13:02:59.678Z,6.03
2018-08-12T13:05:42.677Z,5.90
2018-08-12T13:08:25.477Z,6.45
2018-08-12T13:11:08.149Z,7.00
2018-08-12T13:13:50.966Z,6.17
2018-08-12T13:16:33.595Z,5.85
2018-08-12T13:19:16.603Z,5.90
2018-08-12T13:22:00.166Z,6.42
2018-08-12T13:24:43.083Z,6.87
2018-08-12T13:27:25.715Z,11.22
2018-08-12T13:30:09.830Z,12.63
2018-08-12T13:32:52.836Z,10.75
2018-08-12T13:35:35.322Z,8.85
2018-08-12T13:38:18.288Z,10.70
2018-08-12T13:41:00.871Z,8.70
2018-08-12T13:43:43.644Z,7.80
2018-08-12T13:46:26.470Z,10.88
2018-08-12T13:49:09.432Z,6.33
2018-08-12T13:51:52.267Z,5.67
2018-08-12T13:54:34.970Z,5.90
2018-08-12T13:57:17.767Z,6.45
2018-08-12T14:00:00.810Z,5.22
2018-08-12T14:02:43.654Z,7.37
2018-08-12T14:05:26.160Z,5.80
2018-08-12T14:08:08.941Z,6.72
2018-08-12T14:10:51.554Z,6.05
2018-08-12T14:13:34.700Z,6.62
2018-08-12T14:16:17.040Z,6.67
2018-08-12T14:19:00.171Z,7.35
2018-08-12T14:21:42.530Z,7.25
2018-08-12T14:24:26.119Z,6.05
2018-08-12T14:27:09.040Z,6.25
2018-08-12T14:29:51.601Z,6.20
2018-08-12T14:32:34.483Z,6.55
2018-08-12T14:35:17.285Z,6.75
2018-08-12T14:38:00.260Z,6.72
2018-08-12T14:40:43.258Z,6.85
2018-08-12T14:43:26.474Z,6.67
2018-08-12T14:46:08.909Z,6.12
2018-08-12T14:48:52.204Z,7.00
2018-08-12T14:51:34.576Z,6.95
2018-08-12T14:54:17.813Z,6.58
2018-08-12T14:57:00.152Z,6.55
2018-08-12T14:59:42.750Z,5.80
2018-08-12T15:02:26.731Z,6.28
2018-08-12T15:05:14.320Z,5.90
2018-08-12T15:07:58.010Z,5.78
2018-08-12T15:10:45.515Z,6.08
2018-08-12T15:13:31.179Z,5.50
2018-08-12T15:16:14.424Z,7.05
2018-08-12T15:18:57.550Z,5.15
2018-08-12T15:21:40.072Z,4.20
2018-08-12T15:24:23.215Z,5.33
2018-08-12T15:27:11.001Z,5.53
2018-08-12T15:29:57.385Z,4.83
2018-08-12T15:32:46.211Z,4.70
2018-08-12T15:35:46.548Z,4.00
2018-08-12T15:38:29.882Z,4.83
2018-08-12T15:41:17.363Z,5.10
2018-08-12T15:44:02.260Z,4.58
2018-08-12T15:46:46.920Z,5.03
2018-08-12T15:49:29.524Z,4.87
2018-08-12T15:52:12.176Z,5.33
2018-08-12T15:54:55.510Z,4.80
2018-08-12T15:57:39.429Z,4.80
2018-08-12T16:00:24.733Z,5.03
2018-08-12T16:03:10.438Z,5.58
2018-08-12T16:05:57.917Z,5.60
2018-08-12T16:08:41.604Z,4.80
2018-08-12T16:11:33.005Z,4.60
2018-08-12T16:14:22.994Z,5.33
2018-08-12T16:17:06.637Z,4.72
2018-08-12T16:19:53.661Z,4.60
2018-08-12T16:22:38.872Z,5.08
2018-08-12T16:25:24.985Z,4.78
2018-08-12T16:28:10.587Z,5.87
2018-08-12T16:30:55.318Z,5.85
2018-08-12T16:33:40.896Z,4.95
2018-08-12T16:36:26.929Z,5.60
2018-08-12T16:42:02.287Z,6.17
2018-08-12T16:44:45.823Z,5.22
2018-08-12T16:47:32.256Z,5.95
2018-08-12T16:50:16.855Z,5.27
2018-08-12T16:52:59.901Z,6.40
2018-08-12T16:55:43.404Z,6.13
2018-08-12T16:58:26.985Z,5.80
2018-08-12T17:01:10.997Z,6.90
2018-08-12T17:03:54.625Z,6.63
2018-08-12T17:06:38.578Z,6.27
2018-08-12T17:09:22.222Z,6.23
2018-08-12T17:12:05.464Z,6.67
2018-08-12T17:14:47.875Z,8.00
2018-08-12T17:17:30.839Z,6.80
2018-08-12T17:20:15.538Z,7.30
2018-08-12T17:22:59.118Z,6.87
2018-08-12T17:25:41.908Z,7.50
2018-08-12T17:28:24.698Z,7.03
2018-08-12T17:31:07.544Z,7.40
2018-08-12T17:33:49.994Z,7.03
2018-08-12T17:36:32.768Z,7.03
2018-08-12T17:39:15.380Z,7.40
2018-08-12T17:41:58.213Z,8.03
2018-08-12T17:44:40.814Z,7.37
2018-08-12T17:47:23.969Z,7.80
2018-08-12T17:50:08.366Z,7.57
2018-08-12T17:52:51.216Z,8.40
2018-08-12T17:55:34.037Z,7.20
2018-08-12T17:58:16.832Z,6.97
2018-08-12T18:00:59.277Z,8.03
2018-08-12T18:03:42.106Z,7.73
2018-08-12T18:06:24.804Z,7.80
2018-08-12T18:09:08.456Z,8.00
2018-08-12T18:11:51.208Z,7.13
2018-08-12T18:14:34.180Z,6.87
2018-08-12T18:17:17.077Z,6.30
2018-08-12T18:19:59.553Z,7.30
2018-08-12T18:22:42.665Z,6.63
2018-08-12T18:25:25.860Z,7.10
2018-08-12T18:28:08.778Z,6.30
2018-08-12T18:30:51.435Z,7.50
2018-08-12T18:33:34.456Z,7.30
2018-08-12T18:36:17.506Z,7.50
2018-08-12T18:39:00.806Z,8.47
2018-08-12T18:41:43.443Z,8.00
2018-08-12T18:44:26.145Z,8.57
2018-08-12T18:47:08.929Z,7.53
2018-08-12T18:49:52.114Z,8.03
2018-08-12T18:52:34.869Z,8.40
2018-08-12T18:55:17.631Z,7.07
2018-08-12T18:57:59.978Z,7.60
2018-08-12T19:00:43.012Z,7.10
2018-08-12T19:03:26.109Z,8.90
2018-08-12T19:06:08.580Z,8.20
2018-08-12T19:08:51.766Z,8.47
2018-08-12T19:11:35.184Z,8.70
2018-08-12T19:14:17.509Z,8.33
2018-08-12T19:17:00.305Z,8.47
2018-08-12T19:19:43.125Z,8.10
2018-08-12T19:22:26.226Z,10.97
2018-08-12T19:25:09.393Z,8.10
2018-08-12T19:27:52.635Z,7.90
2018-08-12T19:30:35.423Z,8.43
2018-08-12T19:33:18.233Z,7.67
2018-08-12T19:36:01.011Z,8.03
2018-08-12T19:38:43.788Z,8.00
2018-08-12T19:41:26.491Z,7.73
2018-08-12T19:44:09.553Z,8.00
2018-08-12T19:46:52.768Z,8.60
2018-08-12T19:49:35.626Z,9.03
2018-08-12T19:52:18.253Z,7.90
2018-08-12T19:55:01.117Z,8.77
2018-08-12T19:57:44.115Z,6.47
2018-08-12T20:00:27.427Z,4.80
2018-08-12T20:03:10.037Z,4.57
2018-08-12T20:05:52.964Z,4.10
2018-08-12T20:08:38.807Z,4.10
2018-08-12T20:11:21.348Z,3.83
2018-08-12T20:14:04.067Z,3.90
2018-08-12T20:16:47.021Z,3.30
2018-08-12T20:19:30.000Z,3.50
2018-08-12T20:22:15.411Z,3.57
2018-08-12T20:24:58.639Z,3.40
2018-08-12T20:27:41.779Z,4.33
2018-08-12T20:30:24.564Z,3.07
2018-08-12T20:33:07.287Z,3.00
2018-08-12T20:35:50.765Z,3.50
2018-08-12T20:38:33.619Z,3.43
2018-08-12T20:41:16.236Z,3.90
2018-08-12T20:43:59.570Z,3.67
2018-08-12T20:46:42.796Z,3.80
2018-08-12T20:49:25.280Z,2.97
2018-08-12T20:52:08.460Z,3.60
2018-08-12T20:54:51.558Z,3.67
2018-08-12T20:57:34.257Z,3.10
2018-08-12T21:00:17.436Z,3.60
2018-08-12T21:02:59.943Z,3.93
2018-08-12T21:05:42.744Z,3.17
2018-08-12T21:08:25.508Z,4.30
2018-08-12T21:11:08.482Z,3.50
2018-08-12T21:13:50.879Z,3.60
2018-08-12T21:16:33.789Z,3.50
2018-08-12T21:19:16.595Z,4.47
2018-08-12T21:21:59.472Z,4.17
2018-08-12T21:24:42.147Z,4.07
2018-08-12T21:27:25.541Z,4.10
2018-08-12T21:30:08.653Z,3.40
2018-08-12T21:32:51.587Z,3.97
2018-08-12T21:35:34.070Z,4.10
2018-08-12T21:38:16.737Z,3.60
2018-08-12T21:40:59.487Z,3.87
2018-08-12T21:43:42.114Z,4.80
2018-08-12T21:46:24.728Z,3.63
2018-08-12T21:49:07.733Z,3.40
2018-08-12T21:51:50.576Z,3.33
2018-08-12T21:54:33.909Z,4.33
2018-08-12T21:57:16.872Z,3.60
2018-08-12T21:59:59.076Z,4.00
2018-08-12T22:02:42.609Z,3.70
2018-08-12T22:05:25.890Z,3.50
2018-08-12T22:08:09.235Z,3.63
2018-08-12T22:10:52.318Z,3.77
2018-08-12T22:13:35.221Z,3.60
2018-08-12T22:16:17.792Z,3.90
2018-08-12T22:19:00.596Z,3.70
2018-08-12T22:21:49.746Z,3.77
2018-08-12T22:24:33.063Z,4.07
2018-08-12T22:27:15.888Z,3.80
2018-08-12T22:29:58.155Z,2.93
2018-08-12T22:32:41.545Z,3.80
2018-08-12T22:35:24.555Z,4.27
2018-08-12T22:38:07.341Z,3.90
2018-08-12T22:40:50.164Z,4.03
2018-08-12T22:43:33.548Z,3.63
2018-08-12T22:46:17.380Z,3.90
2018-08-12T22:49:00.655Z,4.00
2018-08-12T22:51:43.176Z,3.50
2018-08-12T22:54:26.136Z,3.50
2018-08-12T22:57:08.895Z,4.00
2018-08-12T22:59:51.425Z,3.73
2018-08-12T23:02:34.356Z,4.33
2018-08-12T23:05:18.021Z,4.10
2018-08-12T23:08:05.903Z,3.70
2018-08-12T23:10:48.571Z,3.60
2018-08-12T23:13:32.770Z,3.60
2018-08-12T23:16:27.331Z,3.60
2018-08-12T23:19:09.612Z,3.23
2018-08-12T23:21:52.292Z,3.50
2018-08-12T23:24:35.024Z,3.57
2018-08-12T23:27:17.868Z,4.60
2018-08-12T23:30:00.308Z,3.60
2018-08-12T23:32:43.091Z,3.63
2018-08-12T23:35:25.697Z,4.00
2018-08-12T23:38:08.707Z,3.90
2018-08-12T23:40:51.546Z,4.10
2018-08-12T23:43:34.171Z,3.93
2018-08-12T23:46:16.913Z,4.10
2018-08-12T23:48:59.559Z,3.97
2018-08-12T23:51:42.569Z,3.73
2018-08-12T23:54:25.868Z,4.83
2018-08-12T23:57:08.266Z,4.33
2018-08-12T23:59:51.076Z,3.97
